Denver, CO

3:21 PM MST on December 07, 2016 (GMT -0700)
Denver International | | Change Station

Elev 5430 ft 39.85 °N, 104.66 °W | Updated 28 minutes ago

Light Snow
Light Snow
10 °F
Feels Like -2 °F
N
8
Wind Variable Wind from NNE

Today
High -- | Low -- °F
--% Chance of Precip.
Yesterday
High -- | Low -- °F
Precip. -- in
Pressure 30.42 in
Visibility 7.0 miles
Clouds Mostly Cloudy 1600 ft
Mostly Cloudy 2100 ft
Windchill -2 °F
Dew Point 3 °F
Humidity 73%
Rainfall 0.03 in
Snow Depth Not available.
7:07 AM 4:33 PM
First Quarter, 56% visible
METAR KDEN 072153Z 02007KT 7SM -SN BKN016 BKN021 M12/M16 A3022 RMK AO2 SNB01E10B49 SLP301 P0000 T11221161
Pressure 30.42 in
Visibility 7.0 miles
Clouds Mostly Cloudy 1600 ft
Mostly Cloudy 2100 ft
Windchill -2 °F
Dew Point 3 °F
Humidity 73%
Rainfall 0.03 in
Snow Depth Not available.
7:07 AM 4:33 PM
First Quarter, 56% visible
METAR KDEN 072153Z 02007KT 7SM -SN BKN016 BKN021 M12/M16 A3022 RMK AO2 SNB01E10B49 SLP301 P0000 T11221161

10-Day Weather Forecast

Almanac

Astronomy

Dec. 07, 2016 Rise Set
Actual Time
Civil Twilight
Nautical Twilight
Astronomical Twilight
Moon
Length of Visible Light
Length of Day
Tomorrow will be .
, % of the Moon is Illuminated

Today's Extremes

State Highs State Lows

Community

WunderPhotos

Upload Photos

1,956,210 photos uploaded!

WunderBlog® & News

Nearby

Air Quality

  Air Quality AQ Index Pollutant
Not available.

Snow Depth

Station Depth Elevation

Earthquake Activity

City Distance Mag. Time & Date
Minimum magnitude displayed is 2.5.

Coastal Water Temperatures

Place Temperature

Stations

Nearby Weather Stations

Station Location Temp. Windchill Dew Point Humidity Wind Precip. Elev Updated Type
                   

Watches & Warnings

There are currently no watches in effect.